Time;durP1;ratioP1;P1;durP2;ratioP2;P2;SDS_P1;SDS_P2;PMS_P1;PMS_P2;Temp;Humidity;BMP_temperature;BMP_pressure;BME280_temperature;BME280_humidity;BME280_pressure;Samples;Min_cycle;Max_cycle;Signal;HPM_P1;HPM_P2
2021/01/06 00:00:49;;;;;;;10.27;4.55;;;24.90;83.40;;;;;;5072407;28;20036;-63
2021/01/06 00:03:21;;;;;;;7.65;4.10;;;24.90;83.70;;;;;;5072306;28;20028;-57
2021/01/06 00:06:09;;;;;;;8.27;4.65;;;24.90;84.00;;;;;;5072007;28;20020;-56
2021/01/06 00:08:36;;;;;;;8.93;4.50;;;24.90;83.40;;;;;;5072120;28;20032;-57
2021/01/06 00:11:04;;;;;;;5.53;3.90;;;24.90;83.70;;;;;;5072023;28;20032;-57
2021/01/06 00:13:32;;;;;;;5.25;4.25;;;25.00;84.00;;;;;;5071864;28;20025;-56
2021/01/06 00:16:00;;;;;;;7.97;4.20;;;24.90;83.80;;;;;;5071916;28;20104;-56
2021/01/06 00:18:28;;;;;;;7.50;4.57;;;24.90;84.30;;;;;;5072246;28;20071;-55
2021/01/06 00:20:57;;;;;;;6.53;4.28;;;24.90;84.50;;;;;;5071856;28;20044;-61
2021/01/06 00:23:25;;;;;;;8.27;3.72;;;24.90;84.30;;;;;;5071392;28;20444;-61
2021/01/06 00:25:52;;;;;;;5.78;3.67;;;24.90;84.70;;;;;;5071673;28;20028;-58
2021/01/06 00:28:21;;;;;;;6.93;3.60;;;24.90;84.40;;;;;;5071456;28;20482;-54
2021/01/06 00:30:55;;;;;;;9.95;3.35;;;24.80;83.00;;;;;;5071548;28;20017;-60
2021/01/06 00:33:29;;;;;;;11.73;3.22;;;24.80;81.60;;;;;;5071370;28;20374;-59
2021/01/06 00:35:59;;;;;;;9.55;3.13;;;24.80;80.50;;;;;;5071760;28;20379;-59
2021/01/06 00:38:27;;;;;;;14.77;2.60;;;24.80;82.00;;;;;;5071856;28;20423;-57
2021/01/06 00:40:55;;;;;;;12.18;3.38;;;24.70;80.80;;;;;;5071791;28;20020;-60
2021/01/06 00:43:23;;;;;;;8.63;2.47;;;24.60;80.40;;;;;;5071447;28;20028;-57
2021/01/06 00:45:50;;;;;;;11.10;2.50;;;24.60;80.50;;;;;;5071424;28;20021;-59
2021/01/06 00:48:18;;;;;;;9.52;2.33;;;24.50;80.50;;;;;;5071784;28;20119;-56
2021/01/06 00:50:45;;;;;;;15.27;3.45;;;24.50;80.10;;;;;;5071294;28;20020;-59
2021/01/06 00:53:27;;;;;;;10.57;2.65;;;24.50;80.90;;;;;;5071396;28;20020;-57
2021/01/06 00:55:57;;;;;;;11.65;2.42;;;24.50;81.20;;;;;;5071622;28;20056;-60
2021/01/06 00:58:24;;;;;;;18.02;3.05;;;24.50;79.20;;;;;;5074240;28;20142;-61
2021/01/06 01:00:53;;;;;;;15.43;2.42;;;24.50;80.60;;;;;;5075193;28;20029;-58
2021/01/06 01:03:20;;;;;;;10.05;2.25;;;24.50;81.10;;;;;;5075518;28;20479;-62
2021/01/06 01:05:48;;;;;;;9.77;2.50;;;24.50;81.20;;;;;;5075491;28;20159;-60
2021/01/06 01:08:15;;;;;;;7.75;2.00;;;24.40;79.50;;;;;;5075472;28;20396;-60
2021/01/06 01:10:49;;;;;;;12.13;2.15;;;24.40;80.30;;;;;;5074503;28;20021;-62
2021/01/06 01:13:19;;;;;;;8.30;2.00;;;24.40;80.50;;;;;;5075736;28;20029;-63
2021/01/06 01:15:48;;;;;;;9.38;2.67;;;24.30;80.70;;;;;;5074935;28;20017;-56
2021/01/06 01:18:20;;;;;;;14.52;1.98;;;24.40;81.00;;;;;;5075215;28;20347;-60
2021/01/06 01:20:54;;;;;;;6.05;1.70;;;24.40;80.90;;;;;;5075408;28;20103;-53
2021/01/06 01:23:23;;;;;;;13.57;2.40;;;24.40;81.00;;;;;;5067347;28;20052;-60
2021/01/06 01:25:51;;;;;;;10.45;2.15;;;24.50;80.90;;;;;;5074525;28;20024;-62
2021/01/06 01:28:22;;;;;;;15.48;2.92;;;24.50;80.90;;;;;;5074094;28;20028;-63
2021/01/06 01:30:50;;;;;;;7.83;2.67;;;24.60;81.00;;;;;;5071594;28;20035;-60
2021/01/06 01:33:19;;;;;;;7.47;1.63;;;24.70;80.60;;;;;;5073293;28;20344;-59
2021/01/06 01:35:47;;;;;;;8.63;2.30;;;24.70;80.30;;;;;;5073396;28;20414;-58
2021/01/06 01:38:20;;;;;;;10.75;2.60;;;24.80;79.80;;;;;;5074044;28;20620;-64
2021/01/06 01:40:47;;;;;;;9.48;2.20;;;24.80;80.20;;;;;;5064472;28;20511;-59
2021/01/06 01:43:17;;;;;;;11.70;2.88;;;24.90;79.60;;;;;;5069734;28;20056;-58
2021/01/06 01:45:47;;;;;;;14.02;2.78;;;25.00;79.30;;;;;;5073894;28;20138;-57
2021/01/06 01:48:23;;;;;;;6.65;2.78;;;25.00;79.00;;;;;;5069507;28;20486;-60
2021/01/06 01:50:52;;;;;;;5.88;2.42;;;25.10;79.00;;;;;;5065517;28;20754;-64
2021/01/06 01:53:30;;;;;;;8.23;3.20;;;25.10;78.90;;;;;;5072754;28;20033;-57
2021/01/06 01:56:00;;;;;;;13.35;3.80;;;25.20;78.90;;;;;;5071724;28;20021;-61
2021/01/06 01:58:30;;;;;;;8.45;3.42;;;25.20;78.80;;;;;;5073278;28;20039;-62
2021/01/06 02:00:58;;;;;;;6.28;2.80;;;25.20;78.40;;;;;;5068647;28;21570;-57
2021/01/06 02:03:36;;;;;;;7.72;2.88;;;25.20;78.90;;;;;;5072324;28;20052;-61
2021/01/06 02:06:10;;;;;;;8.68;2.75;;;25.30;78.40;;;;;;5073596;28;20031;-54
2021/01/06 02:08:54;;;;;;;5.82;2.47;;;25.30;78.30;;;;;;5072799;28;20426;-59
2021/01/06 02:11:42;;;;;;;6.82;2.20;;;25.30;78.60;;;;;;5068834;28;20039;-60
2021/01/06 02:14:29;;;;;;;6.53;2.53;;;25.30;78.90;;;;;;5071962;28;20387;-60
2021/01/06 02:17:10;;;;;;;12.80;2.83;;;25.30;79.00;;;;;;5071622;28;20024;-60
2021/01/06 02:19:40;;;;;;;11.77;3.15;;;25.40;78.80;;;;;;5072719;28;20100;-65
2021/01/06 02:22:14;;;;;;;11.00;2.10;;;25.40;78.20;;;;;;5066919;28;20032;-59
2021/01/06 02:24:43;;;;;;;11.20;2.70;;;25.40;78.30;;;;;;5073198;28;20101;-63
2021/01/06 02:27:10;;;;;;;10.27;2.63;;;25.50;78.30;;;;;;5071714;28;20028;-63
2021/01/06 02:29:39;;;;;;;7.88;2.50;;;25.50;78.60;;;;;;5072775;28;20035;-62
2021/01/06 02:32:07;;;;;;;8.57;1.85;;;25.60;77.80;;;;;;5068790;28;20027;-63
2021/01/06 02:34:40;;;;;;;6.45;2.15;;;25.50;78.30;;;;;;5072438;28;20025;-63
2021/01/06 02:37:08;;;;;;;7.78;2.00;;;25.50;78.30;;;;;;5073591;28;20020;-62
2021/01/06 02:39:36;;;;;;;4.90;1.77;;;25.60;78.80;;;;;;5064865;28;20104;-62
2021/01/06 02:42:04;;;;;;;10.32;2.38;;;25.60;79.10;;;;;;5071553;28;20051;-62
2021/01/06 02:44:32;;;;;;;8.32;2.40;;;25.60;78.00;;;;;;5070019;28;20020;-62
2021/01/06 02:46:59;;;;;;;6.88;2.25;;;25.70;78.40;;;;;;5071609;28;20016;-59
2021/01/06 02:49:27;;;;;;;4.57;2.03;;;25.70;78.10;;;;;;5072299;28;20440;-62
2021/01/06 02:52:08;;;;;;;13.00;2.58;;;25.70;78.20;;;;;;5070792;28;20036;-62
2021/01/06 02:54:40;;;;;;;9.50;1.85;;;25.80;78.10;;;;;;5065704;28;20029;-61
2021/01/06 02:57:09;;;;;;;10.18;2.50;;;25.90;78.20;;;;;;5072183;28;20048;-60
2021/01/06 02:59:41;;;;;;;9.35;1.95;;;25.90;77.00;;;;;;5072339;28;20443;-54
2021/01/06 03:02:14;;;;;;;5.78;2.03;;;26.00;77.90;;;;;;5071159;28;20172;-62
2021/01/06 03:04:48;;;;;;;5.75;1.60;;;26.00;77.70;;;;;;5068050;28;20082;-55
2021/01/06 03:07:18;;;;;;;4.43;1.60;;;26.10;77.10;;;;;;5071732;28;20025;-62
2021/01/06 03:09:46;;;;;;;7.97;2.13;;;26.10;77.50;;;;;;5071980;28;20174;-61
2021/01/06 03:12:31;;;;;;;8.27;2.40;;;26.10;77.60;;;;;;5071224;28;20056;-55
2021/01/06 03:15:00;;;;;;;6.90;1.92;;;26.10;77.20;;;;;;5070025;28;20332;-55
2021/01/06 03:17:30;;;;;;;3.88;1.73;;;26.10;76.80;;;;;;5071425;28;20428;-58
2021/01/06 03:20:04;;;;;;;6.50;2.65;;;26.10;77.10;;;;;;5071443;28;21647;-60
2021/01/06 03:22:33;;;;;;;9.05;1.90;;;26.10;76.60;;;;;;5068703;28;20025;-64
2021/01/06 03:25:11;;;;;;;9.38;2.60;;;26.10;77.10;;;;;;5070247;28;20463;-59
2021/01/06 03:27:42;;;;;;;6.80;1.48;;;26.10;76.80;;;;;;5067700;28;20081;-56
2021/01/06 03:30:13;;;;;;;5.87;1.87;;;26.10;76.30;;;;;;5071838;28;20029;-60
2021/01/06 03:32:43;;;;;;;7.32;2.20;;;26.10;77.20;;;;;;5066389;28;20020;-54
2021/01/06 03:35:31;;;;;;;10.32;2.08;;;26.10;76.90;;;;;;5071185;28;20029;-62
2021/01/06 03:38:17;;;;;;;5.18;1.77;;;26.10;76.40;;;;;;5071190;28;20099;-61
2021/01/06 03:40:50;;;;;;;6.13;1.90;;;26.10;76.90;;;;;;5068738;28;20025;-64
2021/01/06 03:43:20;;;;;;;6.55;1.95;;;26.10;77.10;;;;;;5066135;28;20116;-60
2021/01/06 03:45:52;;;;;;;17.42;2.65;;;26.20;77.10;;;;;;5071454;28;20031;-61
2021/01/06 03:48:30;;;;;;;9.25;2.33;;;26.20;77.30;;;;;;5071107;28;20047;-58
2021/01/06 03:51:06;;;;;;;10.30;2.15;;;26.20;77.20;;;;;;5072537;28;20039;-59
2021/01/06 03:53:43;;;;;;;6.97;2.15;;;26.20;76.70;;;;;;5072586;28;20116;-63
2021/01/06 03:56:40;;;;;;;10.90;2.30;;;26.20;77.40;;;;;;5072367;28;20032;-63
2021/01/06 03:59:18;;;;;;;8.48;2.20;;;26.20;76.90;;;;;;5058624;28;20041;-62
2021/01/06 04:02:34;;;;;;;9.77;2.20;;;26.20;76.60;;;;;;5072203;28;20025;-64
2021/01/06 04:05:07;;;;;;;7.30;1.90;;;26.20;77.00;;;;;;5062001;28;20523;-60
2021/01/06 04:07:45;;;;;;;7.22;2.08;;;26.10;77.10;;;;;;5071726;28;20039;-56
2021/01/06 04:10:16;;;;;;;5.38;1.50;;;26.10;77.40;;;;;;5070940;28;20102;-56
2021/01/06 04:12:44;;;;;;;8.18;2.28;;;26.10;77.80;;;;;;5071568;28;20024;-58
2021/01/06 04:15:14;;;;;;;4.80;1.70;;;26.00;76.40;;;;;;5071925;28;20434;-62
2021/01/06 04:17:44;;;;;;;6.97;2.05;;;26.00;78.10;;;;;;5071417;28;20475;-59
2021/01/06 04:20:34;;;;;;;7.25;1.85;;;26.00;77.70;;;;;;5072121;28;20040;-58
2021/01/06 04:23:07;;;;;;;6.35;2.00;;;25.90;78.00;;;;;;5072083;28;20036;-61
2021/01/06 04:25:37;;;;;;;5.10;1.75;;;25.90;78.90;;;;;;5072078;28;20020;-64
2021/01/06 04:28:23;;;;;;;4.30;1.63;;;25.80;78.10;;;;;;5071559;28;20036;-64
2021/01/06 04:31:00;;;;;;;5.75;1.95;;;25.80;78.50;;;;;;5071824;28;20104;-61
2021/01/06 04:33:37;;;;;;;8.10;1.83;;;25.80;78.30;;;;;;5070635;28;20491;-59
2021/01/06 04:36:13;;;;;;;8.73;1.80;;;25.80;78.00;;;;;;5068950;28;20021;-60
2021/01/06 04:38:45;;;;;;;14.85;5.47;;;25.60;67.70;;;;;;5072312;28;20032;-57
2021/01/06 04:41:25;;;;;;;17.95;8.05;;;25.50;72.00;;;;;;5071504;28;20143;-58
2021/01/06 04:44:02;;;;;;;23.60;8.80;;;25.30;71.20;;;;;;5071462;28;20035;-58
2021/01/06 04:46:45;;;;;;;16.45;5.80;;;25.30;78.80;;;;;;5070870;28;20048;-58
2021/01/06 04:49:39;;;;;;;10.00;4.60;;;25.30;71.90;;;;;;5070586;28;20071;-57
2021/01/06 04:52:35;;;;;;;14.35;4.45;;;24.90;77.10;;;;;;5071173;28;20051;-58
2021/01/06 04:55:28;;;;;;;13.80;3.35;;;25.20;71.90;;;;;;5071822;28;20024;-58
2021/01/06 04:57:59;;;;;;;15.85;5.25;;;24.90;76.50;;;;;;5071594;28;20031;-57
2021/01/06 05:00:46;;;;;;;10.73;3.97;;;24.70;73.60;;;;;;5071638;28;20039;-55
2021/01/06 05:03:41;;;;;;;13.40;3.58;;;24.80;73.90;;;;;;5071890;28;20033;-58
2021/01/06 05:06:38;;;;;;;13.52;6.28;;;24.80;73.90;;;;;;5071132;28;20036;-61
2021/01/06 05:09:25;;;;;;;16.00;3.05;;;24.70;73.70;;;;;;5071433;28;20509;-54
2021/01/06 05:12:07;;;;;;;9.10;2.60;;;24.70;74.10;;;;;;5071276;28;20028;-60
2021/01/06 05:14:55;;;;;;;;;;;24.60;72.90;;;;;;5071528;28;20028;-58
2021/01/06 05:17:22;;;;;;;17.13;5.82;;;24.70;72.60;;;;;;5071395;28;19915;-57
2021/01/06 05:19:51;;;;;;;14.23;5.30;;;24.70;77.70;;;;;;5071635;28;20131;-60
2021/01/06 05:22:19;;;;;;;13.25;4.93;;;24.30;70.90;;;;;;5070750;28;20387;-53
2021/01/06 05:24:50;;;;;;;10.55;2.65;;;24.40;76.50;;;;;;5070576;28;20035;-57
2021/01/06 05:27:20;;;;;;;14.68;8.57;;;24.40;75.10;;;;;;5070995;28;20032;-60
2021/01/06 05:29:53;;;;;;;19.05;5.03;;;24.70;76.60;;;;;;5070506;28;20381;-58
2021/01/06 05:32:27;;;;;;;14.65;8.65;;;24.50;73.70;;;;;;5070705;28;20494;-59
2021/01/06 05:35:21;;;;;;;8.05;1.80;;;24.50;72.90;;;;;;5071093;28;20427;-58
2021/01/06 05:37:57;;;;;;;9.07;4.15;;;24.30;75.20;;;;;;5070912;28;20023;-58
2021/01/06 05:40:29;;;;;;;12.95;4.03;;;24.10;77.80;;;;;;5071069;28;20024;-56
2021/01/06 05:43:04;;;;;;;25.73;6.35;;;24.20;71.70;;;;;;5071239;28;20062;-58
2021/01/06 05:45:45;;;;;;;11.93;4.38;;;24.10;72.10;;;;;;5074383;28;20060;-58
2021/01/06 05:48:31;;;;;;;12.98;5.85;;;24.20;76.20;;;;;;5075048;28;20492;-57
2021/01/06 05:51:05;;;;;;;17.10;6.97;;;24.20;76.80;;;;;;5074172;28;20020;-60
2021/01/06 05:53:44;;;;;;;13.45;2.45;;;24.10;75.40;;;;;;5074622;28;20028;-59
2021/01/06 05:56:25;;;;;;;11.45;5.20;;;24.10;78.30;;;;;;5072735;28;20025;-58
2021/01/06 05:59:18;;;;;;;13.48;5.40;;;24.20;78.00;;;;;;5074032;28;20210;-66
2021/01/06 06:01:49;;;;;;;12.77;5.28;;;24.30;78.50;;;;;;5073549;28;20056;-54
2021/01/06 06:04:40;;;;;;;12.77;4.68;;;24.50;77.30;;;;;;5074763;28;20420;-55
2021/01/06 06:07:13;;;;;;;13.67;3.57;;;24.50;76.00;;;;;;5072897;28;20017;-55
2021/01/06 06:10:19;;;;;;;9.40;3.00;;;24.60;75.30;;;;;;5073125;28;20056;-54
2021/01/06 06:13:04;;;;;;;8.35;3.05;;;24.60;74.70;;;;;;5072146;28;20115;-55
2021/01/06 06:15:37;;;;;;;13.98;3.20;;;24.50;73.50;;;;;;5073957;28;20025;-54
2021/01/06 06:18:41;;;;;;;16.58;2.88;;;24.50;73.40;;;;;;5074337;28;20035;-55
2021/01/06 06:21:29;;;;;;;10.90;2.47;;;24.50;73.30;;;;;;5073995;28;20406;-64
2021/01/06 06:24:21;;;;;;;9.73;2.17;;;24.50;73.10;;;;;;5074178;28;20027;-57
2021/01/06 06:27:28;;;;;;;8.55;2.78;;;24.50;73.90;;;;;;5074059;28;20029;-61
2021/01/06 06:30:03;;;;;;;15.40;3.40;;;24.50;74.00;;;;;;5073290;28;20032;-63
2021/01/06 06:32:33;;;;;;;14.93;2.85;;;24.50;72.50;;;;;;5073690;28;20372;-59
2021/01/06 06:35:28;;;;;;;9.32;2.35;;;24.50;73.80;;;;;;5073691;28;20051;-58
2021/01/06 06:38:03;;;;;;;14.40;3.22;;;24.50;73.50;;;;;;5070921;28;20036;-65
2021/01/06 06:40:54;;;;;;;5.45;1.88;;;24.60;75.30;;;;;;5073251;28;20074;-63
2021/01/06 06:43:48;;;;;;;13.10;2.75;;;24.60;76.10;;;;;;5072209;28;20382;-53
2021/01/06 06:46:45;;;;;;;10.15;2.42;;;24.70;76.50;;;;;;5071197;28;20379;-54
2021/01/06 06:49:18;;;;;;;10.55;2.58;;;24.70;76.80;;;;;;5069499;28;20087;-57
2021/01/06 06:51:54;;;;;;;8.43;2.38;;;24.70;76.80;;;;;;5073182;28;20020;-53
2021/01/06 06:54:48;;;;;;;7.97;2.53;;;24.70;77.00;;;;;;5073562;28;20059;-57
2021/01/06 06:57:30;;;;;;;12.93;1.95;;;24.70;77.10;;;;;;5073461;28;20030;-60
2021/01/06 07:00:23;;;;;;;13.70;2.10;;;24.60;74.90;;;;;;5073658;28;20502;-58
2021/01/06 07:03:04;;;;;;;9.52;2.22;;;24.60;75.10;;;;;;5073305;28;20028;-54
2021/01/06 07:05:56;;;;;;;14.88;7.00;;;24.60;76.50;;;;;;5073453;28;20028;-69
2021/01/06 07:08:26;;;;;;;16.25;6.45;;;24.50;76.20;;;;;;5071864;28;20040;-59
2021/01/06 07:11:01;;;;;;;25.88;12.88;;;24.50;75.90;;;;;;5059910;28;20120;-51
2021/01/06 07:13:30;;;;;;;24.98;19.63;;;24.50;75.80;;;;;;5067707;28;20074;-51
2021/01/06 07:16:18;;;;;;;15.77;9.88;;;24.50;75.40;;;;;;5069984;28;20028;-51
2021/01/06 07:18:49;;;;;;;26.65;15.63;;;24.50;75.40;;;;;;5068139;28;20020;-54
2021/01/06 07:21:33;;;;;;;13.57;6.63;;;24.50;75.00;;;;;;5063665;28;20048;-55
2021/01/06 07:24:07;;;;;;;16.77;7.82;;;24.50;75.10;;;;;;5065664;28;20276;-56
2021/01/06 07:26:43;;;;;;;18.33;10.10;;;24.50;74.90;;;;;;5071345;28;20021;-53
2021/01/06 07:29:13;;;;;;;17.33;10.25;;;24.50;74.80;;;;;;5070819;28;20087;-53
2021/01/06 07:32:00;;;;;;;19.92;9.15;;;24.40;74.40;;;;;;5071732;28;20016;-53
2021/01/06 07:34:40;;;;;;;22.52;11.25;;;24.50;73.90;;;;;;5068985;28;20021;-54
2021/01/06 07:37:33;;;;;;;14.45;7.30;;;24.40;74.20;;;;;;5071163;28;20036;-56
2021/01/06 07:40:23;;;;;;;21.25;6.95;;;24.30;74.40;;;;;;5065140;28;20116;-54
2021/01/06 07:43:12;;;;;;;27.38;15.25;;;24.40;74.90;;;;;;5063853;28;20048;-53
2021/01/06 07:46:09;;;;;;;19.80;13.95;;;24.40;74.10;;;;;;5069996;28;20032;-56
2021/01/06 07:48:41;;;;;;;12.48;7.30;;;24.40;74.90;;;;;;5071324;28;20072;-59
2021/01/06 07:51:15;;;;;;;;;;;24.40;74.30;;;;;;5070272;28;20097;-53
2021/01/06 07:53:45;;;;;;;20.02;7.88;;;24.40;75.70;;;;;;5066780;28;19912;-60
2021/01/06 07:56:49;;;;;;;16.77;7.00;;;24.30;75.60;;;;;;5071612;28;20471;-64
2021/01/06 07:59:48;;;;;;;19.83;6.28;;;24.20;74.90;;;;;;5040867;28;20032;-62
2021/01/06 08:02:53;;;;;;;18.50;5.85;;;24.20;75.00;;;;;;5065079;28;20024;-52
2021/01/06 08:05:28;;;;;;;15.48;4.70;;;24.20;77.50;;;;;;5067368;28;20033;-65
2021/01/06 08:08:08;;;;;;;15.52;4.75;;;24.30;77.40;;;;;;5070728;28;20509;-52
2021/01/06 08:10:42;;;;;;;18.95;4.25;;;24.30;77.10;;;;;;5067416;28;20032;-53
2021/01/06 08:13:30;;;;;;;17.50;6.78;;;24.20;76.40;;;;;;5066580;28;20028;-54
2021/01/06 08:16:24;;;;;;;21.20;7.53;;;24.20;77.50;;;;;;5071067;28;20035;-55
2021/01/06 08:19:36;;;;;;;17.25;6.30;;;24.20;76.20;;;;;;5058528;28;20089;-57
2021/01/06 08:22:32;;;;;;;15.10;6.45;;;24.10;78.30;;;;;;5066400;28;20049;-55
2021/01/06 08:25:02;;;;;;;18.13;7.10;;;24.10;76.70;;;;;;5069504;28;20110;-54
2021/01/06 08:27:38;;;;;;;15.55;9.75;;;24.10;76.80;;;;;;5070549;28;20056;-52
2021/01/06 08:30:29;;;;;;;16.23;5.90;;;24.10;76.30;;;;;;5069925;28;20491;-61
2021/01/06 08:33:11;;;;;;;18.08;6.50;;;24.10;77.50;;;;;;5064013;28;20332;-64
2021/01/06 08:35:43;;;;;;;15.88;5.55;;;24.20;77.30;;;;;;5070544;28;20082;-55
2021/01/06 08:38:34;;;;;;;25.65;7.95;;;24.10;75.90;;;;;;5069954;28;20020;-56
2021/01/06 08:41:19;;;;;;;15.60;8.40;;;24.20;77.40;;;;;;5068352;28;20427;-54
2021/01/06 08:43:48;;;;;;;16.20;8.25;;;24.10;74.20;;;;;;5065658;28;20035;-55
2021/01/06 08:46:25;;;;;;;14.55;6.40;;;24.10;75.80;;;;;;5068599;28;20021;-52
2021/01/06 08:48:52;;;;;;;10.60;4.82;;;24.10;75.90;;;;;;5065134;28;20124;-53
2021/01/06 08:51:34;;;;;;;14.77;6.25;;;24.20;75.20;;;;;;5069544;28;20106;-54
2021/01/06 08:54:14;;;;;;;15.43;6.00;;;24.20;76.80;;;;;;5065045;28;20510;-53
2021/01/06 08:56:42;;;;;;;18.45;7.40;;;24.20;74.70;;;;;;5067929;28;20032;-54
2021/01/06 08:59:27;;;;;;;11.65;5.13;;;24.10;75.30;;;;;;5049126;28;20493;-58
2021/01/06 09:02:00;;;;;;;20.88;12.57;;;24.20;75.70;;;;;;5067444;28;20057;-54
2021/01/06 09:04:42;;;;;;;12.75;4.78;;;24.20;75.80;;;;;;5066296;28;20024;-59
2021/01/06 09:07:13;;;;;;;13.82;4.07;;;24.20;75.10;;;;;;5066517;28;20036;-61
2021/01/06 09:09:43;;;;;;;10.13;4.03;;;24.10;76.90;;;;;;5066141;28;20486;-55
2021/01/06 09:12:37;;;;;;;17.13;3.40;;;24.00;76.30;;;;;;5066613;28;20020;-51
2021/01/06 09:15:14;;;;;;;13.90;3.72;;;23.90;75.80;;;;;;5067329;28;20020;-55
2021/01/06 09:18:16;;;;;;;10.55;3.97;;;23.90;75.90;;;;;;5070160;28;20031;-52
2021/01/06 09:21:02;;;;;;;9.57;2.85;;;23.80;77.50;;;;;;5063702;28;20049;-51
2021/01/06 09:23:30;;;;;;;12.65;3.63;;;23.90;77.10;;;;;;5066519;28;20020;-52
2021/01/06 09:26:03;;;;;;;14.25;3.20;;;23.90;79.00;;;;;;5070300;28;20021;-56
2021/01/06 09:28:37;;;;;;;12.60;3.22;;;23.90;77.70;;;;;;5074347;28;20429;-55
2021/01/06 09:31:06;;;;;;;19.67;3.08;;;23.80;77.70;;;;;;5075617;28;20109;-53
2021/01/06 09:33:41;;;;;;;12.30;2.72;;;23.70;77.10;;;;;;5066852;28;20020;-66
2021/01/06 09:36:12;;;;;;;13.10;3.03;;;23.70;77.50;;;;;;5073558;28;20024;-62
2021/01/06 09:38:51;;;;;;;11.80;2.65;;;23.70;77.80;;;;;;5070403;28;20407;-61
2021/01/06 09:41:31;;;;;;;12.07;3.20;;;23.70;77.60;;;;;;5072108;28;20029;-66
2021/01/06 09:44:03;;;;;;;10.32;2.85;;;23.70;77.30;;;;;;5073228;28;20450;-65
2021/01/06 09:46:53;;;;;;;9.73;2.72;;;23.70;77.90;;;;;;5074339;28;20108;-66
2021/01/06 09:49:27;;;;;;;16.73;3.45;;;23.80;78.60;;;;;;5069624;28;20047;-65
2021/01/06 09:52:02;;;;;;;22.98;4.13;;;23.80;78.60;;;;;;5072045;28;20024;-67
2021/01/06 09:54:35;;;;;;;26.77;4.93;;;23.80;78.70;;;;;;5070623;28;20016;-68
2021/01/06 09:57:03;;;;;;;23.13;4.38;;;23.90;78.50;;;;;;5068879;28;20032;-66
2021/01/06 09:59:39;;;;;;;12.85;3.63;;;23.90;78.40;;;;;;5069475;28;20020;-66
2021/01/06 10:02:20;;;;;;;17.08;4.47;;;23.90;78.30;;;;;;5072077;28;20060;-64
2021/01/06 10:05:00;;;;;;;16.33;4.55;;;23.90;78.20;;;;;;5069783;28;20016;-57
2021/01/06 10:07:57;;;;;;;15.95;3.53;;;23.90;78.00;;;;;;5068884;28;20036;-62
2021/01/06 10:10:40;;;;;;;14.35;4.35;;;23.90;77.90;;;;;;5055936;28;20029;-62
2021/01/06 10:13:16;;;;;;;18.02;4.35;;;23.90;77.90;;;;;;5074067;28;20024;-66
2021/01/06 10:15:55;;;;;;;13.68;4.00;;;23.90;77.80;;;;;;5073185;28;20035;-57
2021/01/06 10:18:55;;;;;;;18.77;4.18;;;23.90;77.70;;;;;;5068098;28;20182;-63
2021/01/06 10:21:45;;;;;;;14.77;4.03;;;23.90;77.80;;;;;;5073038;28;20059;-54
2021/01/06 10:24:50;;;;;;;11.65;3.50;;;23.90;78.30;;;;;;5072847;28;20056;-60
2021/01/06 10:27:41;;;;;;;12.50;3.97;;;23.90;77.60;;;;;;5068761;28;20075;-57
2021/01/06 10:30:23;;;;;;;27.08;5.90;;;23.90;77.50;;;;;;5071546;28;20113;-65
2021/01/06 10:32:55;;;;;;;;;;;23.90;77.60;;;;;;5074848;28;20115;-64
2021/01/06 10:35:46;;;;;;;13.23;3.17;;;23.90;77.70;;;;;;5072392;28;19912;-65
2021/01/06 10:38:43;;;;;;;14.48;3.83;;;23.90;77.70;;;;;;5065698;28;20024;-63
2021/01/06 10:41:25;;;;;;;11.15;3.42;;;23.90;77.50;;;;;;5070351;28;20020;-62
2021/01/06 10:44:36;;;;;;;16.13;4.25;;;23.80;77.70;;;;;;5072506;28;20042;-54
2021/01/06 10:47:33;;;;;;;16.05;4.88;;;23.80;77.90;;;;;;5069793;28;20444;-61
2021/01/06 10:50:23;;;;;;;17.30;3.88;;;23.80;77.90;;;;;;5073274;28;20106;-66
2021/01/06 10:53:06;;;;;;;14.52;3.85;;;23.80;77.80;;;;;;5067199;28;20066;-63
2021/01/06 10:55:59;;;;;;;11.63;3.63;;;23.80;77.90;;;;;;5071726;28;20498;-59
2021/01/06 10:58:58;;;;;;;17.08;4.40;;;23.80;77.90;;;;;;5067243;28;20475;-61
2021/01/06 11:01:28;;;;;;;21.45;4.05;;;23.80;77.80;;;;;;5072557;28;20029;-58
2021/01/06 11:04:29;;;;;;;14.25;3.15;;;23.80;77.90;;;;;;5072568;28;20398;-56
2021/01/06 11:07:23;;;;;;;10.70;2.83;;;23.80;77.90;;;;;;5073550;28;20034;-55
2021/01/06 11:10:49;;;;;;;13.93;3.85;;;23.70;77.90;;;;;;5073068;28;20100;-57
2021/01/06 11:13:57;;;;;;;13.68;3.88;;;23.70;78.00;;;;;;5069733;28;20401;-64
2021/01/06 11:16:39;;;;;;;16.65;3.72;;;23.70;78.00;;;;;;5070898;28;20017;-59
2021/01/06 11:20:01;;;;;;;7.70;2.78;;;23.70;78.00;;;;;;5068604;28;20081;-62
2021/01/06 11:22:53;;;;;;;11.85;3.60;;;23.70;78.10;;;;;;5071846;28;20024;-57
2021/01/06 11:25:48;;;;;;;;;;;23.70;78.10;;;;;;5072358;28;20034;-64
2021/01/06 11:28:55;;;;;;;12.15;3.38;;;23.70;78.10;;;;;;5067911;28;19965;-63
2021/01/06 11:31:38;;;;;;;8.32;2.50;;;23.70;78.10;;;;;;5069153;28;20043;-56
2021/01/06 11:34:25;;;;;;;11.40;3.28;;;23.70;78.10;;;;;;5071640;28;20103;-61
2021/01/06 11:37:01;;;;;;;11.35;3.00;;;23.60;78.00;;;;;;5060706;28;20104;-57
2021/01/06 11:39:33;;;;;;;10.90;3.58;;;23.60;78.20;;;;;;5069380;28;20143;-55
2021/01/06 11:42:17;;;;;;;10.15;3.08;;;23.60;78.10;;;;;;5071950;28;20029;-63
2021/01/06 11:45:12;;;;;;;7.70;2.72;;;23.60;78.10;;;;;;5071401;28;20522;-61
2021/01/06 11:47:55;;;;;;;11.60;3.05;;;23.60;78.10;;;;;;5066388;28;20036;-59
2021/01/06 11:50:40;;;;;;;16.73;3.92;;;23.60;78.10;;;;;;5068470;28;20111;-59
2021/01/06 11:53:27;;;;;;;14.40;3.45;;;23.60;78.70;;;;;;5072504;28;20100;-58
2021/01/06 11:56:47;;;;;;;10.13;2.25;;;23.60;78.10;;;;;;5071565;28;20035;-61
2021/01/06 11:59:38;;;;;;;10.35;3.10;;;23.60;78.00;;;;;;5024976;28;20033;-61
2021/01/06 12:02:54;;;;;;;;;;;;;;;;;;;;;
2021/01/06 12:05:32;;;;;;;10.48;3.05;;;23.50;78.30;;;;;;5023588;28;20045;-58
2021/01/06 12:08:41;;;;;;;8.60;2.40;;;23.50;78.00;;;;;;5024658;28;20104;-54
2021/01/06 12:11:29;;;;;;;9.18;2.70;;;23.50;78.00;;;;;;5059381;28;20087;-56
2021/01/06 12:14:22;;;;;;;12.40;2.85;;;23.50;77.90;;;;;;5067056;28;20021;-61
2021/01/06 12:17:22;;;;;;;9.48;2.63;;;23.50;77.90;;;;;;5070867;28;20028;-61
2021/01/06 12:20:03;;;;;;;7.95;2.13;;;23.50;77.80;;;;;;5063599;28;20383;-63
2021/01/06 12:22:38;;;;;;;9.52;2.65;;;23.50;77.80;;;;;;5071549;28;20513;-63
2021/01/06 12:25:26;;;;;;;8.13;2.38;;;23.50;77.70;;;;;;5068010;28;20024;-57
2021/01/06 12:28:38;;;;;;;8.55;2.20;;;23.50;77.80;;;;;;5065854;28;20105;-62
2021/01/06 12:31:20;;;;;;;5.82;2.25;;;23.40;77.60;;;;;;5068427;28;20055;-67
2021/01/06 12:33:50;;;;;;;7.95;2.38;;;23.40;77.60;;;;;;5067974;28;20498;-63
2021/01/06 12:36:26;;;;;;;7.55;2.08;;;23.40;77.70;;;;;;5071126;28;20170;-62
2021/01/06 12:39:24;;;;;;;6.40;2.47;;;23.40;77.70;;;;;;5067222;28;20029;-62
2021/01/06 12:42:16;;;;;;;12.10;2.45;;;23.40;77.70;;;;;;5072422;28;20024;-58
2021/01/06 12:45:04;;;;;;;6.63;2.28;;;23.40;78.20;;;;;;5072376;28;20025;-66
2021/01/06 12:47:57;;;;;;;6.20;2.13;;;23.40;78.30;;;;;;5072198;28;20020;-62
2021/01/06 12:50:45;;;;;;;9.45;3.05;;;23.40;77.80;;;;;;5072233;28;20059;-61
2021/01/06 12:53:19;;;;;;;9.13;2.15;;;23.30;77.70;;;;;;5071757;28;20033;-65
2021/01/06 12:55:55;;;;;;;8.48;2.35;;;23.30;78.50;;;;;;5070813;28;20119;-62
2021/01/06 12:58:28;;;;;;;6.72;2.25;;;23.30;77.80;;;;;;5072165;28;20036;-65
2021/01/06 13:01:25;;;;;;;4.60;2.00;;;23.30;77.80;;;;;;5071975;28;20036;-66
2021/01/06 13:04:08;;;;;;;6.85;2.10;;;23.30;77.90;;;;;;5072398;28;20064;-64
2021/01/06 13:06:59;;;;;;;6.88;2.15;;;23.30;78.00;;;;;;5071325;28;20025;-65
2021/01/06 13:10:02;;;;;;;10.68;3.03;;;23.30;78.10;;;;;;5071855;28;20040;-64
2021/01/06 13:12:57;;;;;;;3.88;1.45;;;23.30;78.00;;;;;;5071617;28;20115;-62
2021/01/06 13:15:44;;;;;;;5.43;1.50;;;23.30;78.10;;;;;;5072082;28;20104;-62
2021/01/06 13:18:24;;;;;;;7.10;1.65;;;23.20;78.00;;;;;;5072276;28;20028;-64
2021/01/06 13:21:31;;;;;;;7.00;1.92;;;23.20;78.00;;;;;;5070368;28;20082;-61
2021/01/06 13:23:58;;;;;;;6.95;2.60;;;23.20;78.00;;;;;;5072096;28;20024;-64
2021/01/06 13:26:40;;;;;;;3.80;1.25;;;23.20;78.20;;;;;;5063561;28;20040;-63
2021/01/06 13:29:30;;;;;;;8.32;1.88;;;23.20;78.20;;;;;;5067401;28;20395;-64
2021/01/06 13:32:18;;;;;;;7.15;2.15;;;23.20;78.30;;;;;;5068650;28;20035;-62
2021/01/06 13:34:55;;;;;;;6.50;2.28;;;23.20;78.50;;;;;;5065960;28;20040;-66
2021/01/06 13:37:34;;;;;;;8.32;2.03;;;23.10;78.40;;;;;;5070124;28;20082;-63
2021/01/06 13:40:21;;;;;;;5.03;1.50;;;23.10;78.40;;;;;;5070410;28;20031;-66
2021/01/06 13:42:49;;;;;;;7.60;1.73;;;23.10;78.40;;;;;;5070931;28;20032;-64
2021/01/06 13:45:24;;;;;;;5.45;1.50;;;23.10;78.50;;;;;;5066710;28;20031;-63
2021/01/06 13:47:57;;;;;;;8.90;2.40;;;23.10;78.50;;;;;;5066679;28;20173;-67
2021/01/06 13:51:15;;;;;;;6.80;2.30;;;23.10;78.60;;;;;;5069427;28;20024;-63